createdAt,value
2018-09-19T00:01:18.191Z,18.32
2018-09-19T00:03:48.276Z,18.32
2018-09-19T00:06:18.319Z,18.30
2018-09-19T00:08:50.050Z,18.30
2018-09-19T00:11:20.035Z,18.29
2018-09-19T00:13:49.984Z,18.27
2018-09-19T00:16:19.972Z,18.27
2018-09-19T00:18:49.996Z,18.25
2018-09-19T00:21:20.011Z,18.25
2018-09-19T00:23:49.996Z,18.23
2018-09-19T00:26:20.051Z,18.21
2018-09-19T00:28:50.026Z,18.19
2018-09-19T00:31:20.026Z,18.17
2018-09-19T00:33:49.983Z,18.16
2018-09-19T00:36:19.979Z,18.14
2018-09-19T00:38:50.050Z,18.11
2018-09-19T00:41:20.020Z,18.09
2018-09-19T00:43:50.002Z,18.07
2018-09-19T00:46:20.941Z,18.04
2018-09-19T00:48:51.901Z,18.00
2018-09-19T00:51:21.823Z,17.97
2018-09-19T00:53:51.820Z,17.92
2018-09-19T00:56:21.807Z,17.90
2018-09-19T00:58:51.814Z,17.86
2018-09-19T01:01:21.858Z,17.82
2018-09-19T01:03:51.843Z,17.77
2018-09-19T01:06:21.913Z,17.75
2018-09-19T01:08:51.901Z,17.71
2018-09-19T01:11:21.918Z,17.68
2018-09-19T01:13:51.881Z,17.65
2018-09-19T01:16:21.841Z,17.61
2018-09-19T01:18:51.891Z,17.57
2018-09-19T01:21:21.844Z,17.54
2018-09-19T01:23:53.507Z,17.49
2018-09-19T01:26:23.505Z,17.47
2018-09-19T01:28:53.499Z,17.43
2018-09-19T01:31:23.503Z,17.41
2018-09-19T01:33:53.531Z,17.36
2018-09-19T01:36:23.533Z,17.33
2018-09-19T01:38:53.540Z,17.31
2018-09-19T01:41:23.529Z,17.29
2018-09-19T01:43:53.590Z,17.26
2018-09-19T01:46:23.614Z,17.24
2018-09-19T01:48:53.616Z,17.22
2018-09-19T01:51:23.676Z,17.19
2018-09-19T01:53:53.633Z,17.18
2018-09-19T01:56:23.682Z,17.16
2018-09-19T01:58:53.775Z,17.13
2018-09-19T02:01:23.980Z,17.10
2018-09-19T02:03:54.000Z,17.08
2018-09-19T02:06:23.990Z,16.88
2018-09-19T02:08:54.102Z,17.02
2018-09-19T02:11:24.122Z,16.98
2018-09-19T02:13:54.245Z,16.96
2018-09-19T02:16:24.377Z,16.94
2018-09-19T02:18:56.440Z,16.92
2018-09-19T02:21:26.448Z,16.91
2018-09-19T02:23:56.442Z,16.88
2018-09-19T02:26:26.412Z,16.87
2018-09-19T02:28:56.413Z,16.86
2018-09-19T02:31:26.433Z,16.84
2018-09-19T02:33:56.687Z,16.83
2018-09-19T02:36:27.383Z,16.81
2018-09-19T02:38:58.496Z,16.80
2018-09-19T02:41:28.482Z,16.78
2018-09-19T02:43:58.542Z,16.77
2018-09-19T02:46:28.597Z,16.76
2018-09-19T02:48:58.582Z,16.73
2018-09-19T02:51:35.658Z,16.73
2018-09-19T02:54:05.621Z,16.71
2018-09-19T02:56:35.550Z,16.71
2018-09-19T02:59:05.559Z,16.69
2018-09-19T03:01:35.527Z,16.69
2018-09-19T03:04:06.516Z,16.69
2018-09-19T03:06:36.577Z,16.70
2018-09-19T03:09:07.767Z,16.46
2018-09-19T03:11:37.743Z,16.71
2018-09-19T03:14:07.744Z,16.73
2018-09-19T03:16:37.731Z,16.74
2018-09-19T03:19:07.707Z,16.74
2018-09-19T03:21:37.723Z,16.75
2018-09-19T03:24:07.758Z,16.74
2018-09-19T03:26:37.822Z,16.74
2018-09-19T03:29:07.790Z,16.73
2018-09-19T03:31:38.121Z,16.72
2018-09-19T03:34:08.134Z,16.73
2018-09-19T03:36:38.179Z,16.72
2018-09-19T03:39:12.300Z,16.71
2018-09-19T03:41:42.260Z,16.70
2018-09-19T03:44:12.322Z,16.69
2018-09-19T03:46:42.284Z,16.68
2018-09-19T03:49:12.276Z,16.68
2018-09-19T03:51:42.339Z,16.67
2018-09-19T03:54:12.343Z,16.65
2018-09-19T03:56:42.414Z,16.64
2018-09-19T03:59:12.368Z,16.62
2018-09-19T04:01:42.981Z,16.60
2018-09-19T04:04:12.962Z,16.58
2018-09-19T04:06:42.937Z,16.57
2018-09-19T04:09:14.051Z,16.55
2018-09-19T04:11:44.095Z,16.54
2018-09-19T04:14:14.122Z,16.55
2018-09-19T04:16:44.113Z,16.53
2018-09-19T04:19:15.030Z,16.53
2018-09-19T04:21:48.899Z,16.51
2018-09-19T04:24:18.902Z,16.49
2018-09-19T04:26:48.922Z,16.48
2018-09-19T04:29:18.906Z,16.46
2018-09-19T04:31:49.043Z,16.46
2018-09-19T04:34:19.040Z,16.45
2018-09-19T04:36:49.015Z,16.44
2018-09-19T04:39:18.983Z,16.42
2018-09-19T04:41:48.950Z,16.40
2018-09-19T04:44:18.956Z,16.38
2018-09-19T04:46:49.015Z,16.37
2018-09-19T04:49:19.022Z,16.34
2018-09-19T04:51:49.064Z,16.31
2018-09-19T04:54:19.134Z,16.30
2018-09-19T04:56:51.211Z,16.28
2018-09-19T04:59:21.540Z,16.27
2018-09-19T05:01:51.659Z,16.25
2018-09-19T05:04:21.686Z,16.24
2018-09-19T05:06:51.723Z,16.22
2018-09-19T05:09:21.725Z,16.21
2018-09-19T05:11:51.804Z,16.20
2018-09-19T05:14:21.817Z,16.19
2018-09-19T05:16:51.831Z,16.18
2018-09-19T05:19:21.813Z,16.18
2018-09-19T05:21:51.841Z,16.17
2018-09-19T05:24:21.844Z,16.16
2018-09-19T05:26:51.802Z,16.15
2018-09-19T05:29:21.721Z,16.14
2018-09-19T05:31:51.685Z,16.14
2018-09-19T05:34:21.676Z,16.14
2018-09-19T05:36:51.623Z,16.14
2018-09-19T05:39:21.624Z,16.14
2018-09-19T05:41:51.721Z,16.15
2018-09-19T05:44:22.046Z,16.16
2018-09-19T05:46:52.885Z,16.18
2018-09-19T05:49:22.903Z,16.20
2018-09-19T05:51:53.202Z,16.23
2018-09-19T05:54:23.287Z,16.27
2018-09-19T05:56:53.423Z,16.32
2018-09-19T05:59:23.478Z,16.38
2018-09-19T06:01:53.461Z,16.44
2018-09-19T06:04:23.534Z,16.50
2018-09-19T06:06:53.733Z,16.55
2018-09-19T06:09:23.749Z,16.62
2018-09-19T06:11:53.787Z,16.68
2018-09-19T06:14:23.804Z,16.74
2018-09-19T06:16:53.807Z,16.82
2018-09-19T06:19:23.826Z,16.90
2018-09-19T06:21:53.836Z,16.97
2018-09-19T06:24:23.873Z,17.08
2018-09-19T06:26:53.916Z,17.16
2018-09-19T06:29:23.923Z,17.24
2018-09-19T06:31:53.941Z,17.32
2018-09-19T06:34:24.910Z,17.42
2018-09-19T06:36:54.967Z,17.53
2018-09-19T06:39:24.976Z,17.63
2018-09-19T06:41:55.022Z,17.74
2018-09-19T06:44:25.010Z,17.84
2018-09-19T06:46:55.081Z,17.96
2018-09-19T06:49:25.014Z,18.07
2018-09-19T06:51:55.083Z,18.18
2018-09-19T06:54:25.087Z,18.29
2018-09-19T06:56:55.042Z,18.42
2018-09-19T06:59:25.040Z,18.53
2018-09-19T07:01:55.009Z,18.65
2018-09-19T07:04:25.022Z,18.75
2018-09-19T07:06:55.018Z,18.87
2018-09-19T07:09:25.029Z,18.98
2018-09-19T07:11:55.069Z,19.09
2018-09-19T07:14:25.110Z,19.20
2018-09-19T07:16:55.123Z,19.33
2018-09-19T07:19:25.086Z,19.43
2018-09-19T07:21:55.045Z,19.55
2018-09-19T07:24:25.091Z,19.67
2018-09-19T07:26:55.105Z,19.79
2018-09-19T07:29:25.091Z,19.91
2018-09-19T07:31:55.072Z,20.04
2018-09-19T07:34:25.043Z,20.16
2018-09-19T07:36:55.100Z,20.28
2018-09-19T07:39:25.131Z,20.41
2018-09-19T07:41:55.161Z,20.54
2018-09-19T07:44:25.194Z,20.66
2018-09-19T07:46:55.159Z,20.80
2018-09-19T07:49:25.132Z,20.95
2018-09-19T07:51:56.048Z,21.08
2018-09-19T07:54:26.072Z,21.23
2018-09-19T07:56:56.113Z,21.38
2018-09-19T07:59:26.148Z,21.52
2018-09-19T08:01:56.270Z,21.66
2018-09-19T08:04:26.297Z,21.81
2018-09-19T08:06:56.296Z,21.96
2018-09-19T08:09:26.404Z,22.08
2018-09-19T08:11:56.390Z,22.23
2018-09-19T08:14:26.381Z,22.31
2018-09-19T08:16:56.389Z,22.40
2018-09-19T08:19:26.380Z,22.51
2018-09-19T08:21:56.482Z,22.64
2018-09-19T08:24:26.444Z,22.55
2018-09-19T08:26:56.492Z,22.93
2018-09-19T08:29:26.567Z,23.07
2018-09-19T08:31:56.534Z,23.20
2018-09-19T08:34:26.598Z,23.33
2018-09-19T08:36:56.792Z,23.46
2018-09-19T08:39:27.684Z,23.57
2018-09-19T08:41:57.614Z,23.64
2018-09-19T08:44:27.617Z,23.70
2018-09-19T08:46:57.753Z,23.75
2018-09-19T08:49:28.623Z,23.80
2018-09-19T08:51:58.650Z,23.85
2018-09-19T08:54:30.079Z,23.94
2018-09-19T08:57:00.144Z,24.04
2018-09-19T08:59:30.158Z,24.17
2018-09-19T09:02:00.127Z,24.29
2018-09-19T09:04:32.883Z,24.43
2018-09-19T09:07:02.945Z,24.55
2018-09-19T09:09:32.997Z,24.67
2018-09-19T09:12:03.060Z,24.77
2018-09-19T09:14:32.966Z,24.87
2018-09-19T09:17:05.999Z,24.97
2018-09-19T09:19:36.011Z,25.09
2018-09-19T09:22:06.087Z,25.19
2018-09-19T09:24:36.140Z,25.29
2018-09-19T09:27:06.360Z,25.38
2018-09-19T09:29:36.280Z,25.49
2018-09-19T09:32:06.264Z,25.60
2018-09-19T09:34:36.341Z,25.70
2018-09-19T09:37:06.371Z,25.78
2018-09-19T09:39:36.324Z,25.88
2018-09-19T09:42:06.335Z,25.97
2018-09-19T09:44:36.400Z,26.09
2018-09-19T09:47:06.607Z,26.21
2018-09-19T09:49:36.640Z,26.34
2018-09-19T09:52:06.568Z,26.46
2018-09-19T09:54:36.553Z,26.59
2018-09-19T09:57:06.843Z,26.70
2018-09-19T09:59:37.174Z,26.82
2018-09-19T10:02:07.184Z,26.92
2018-09-19T10:04:37.194Z,27.02
2018-09-19T10:07:07.655Z,27.11
2018-09-19T10:09:37.677Z,27.22
2018-09-19T10:12:07.652Z,27.32
2018-09-19T10:14:37.696Z,27.40
2018-09-19T10:17:08.045Z,27.50
2018-09-19T10:19:38.069Z,27.59
2018-09-19T10:22:09.016Z,27.67
2018-09-19T10:24:39.125Z,27.73
2018-09-19T10:27:09.220Z,27.79
2018-09-19T10:29:39.268Z,27.84
2018-09-19T10:32:09.302Z,27.89
2018-09-19T10:34:39.300Z,27.94
2018-09-19T10:37:09.383Z,27.98
2018-09-19T10:39:39.394Z,28.03
2018-09-19T10:42:09.746Z,28.06
2018-09-19T10:44:39.793Z,28.09
2018-09-19T10:47:09.826Z,28.10
2018-09-19T10:49:40.743Z,28.14
2018-09-19T10:52:10.657Z,28.18
2018-09-19T10:54:40.711Z,28.22
2018-09-19T10:57:10.707Z,28.27
2018-09-19T10:59:40.694Z,28.34
2018-09-19T11:02:10.693Z,28.44
2018-09-19T11:04:40.678Z,28.54
2018-09-19T11:07:10.656Z,28.66
2018-09-19T11:09:40.639Z,28.78
2018-09-19T11:12:10.610Z,28.91
2018-09-19T11:14:40.579Z,28.99
2018-09-19T11:17:10.618Z,29.08
2018-09-19T11:19:40.611Z,29.19
2018-09-19T11:22:10.642Z,29.28
2018-09-19T11:24:40.641Z,29.38
2018-09-19T11:27:10.642Z,29.47
2018-09-19T11:29:42.114Z,29.56
2018-09-19T11:32:12.370Z,29.61
2018-09-19T11:34:42.410Z,29.64
2018-09-19T11:37:12.404Z,29.68
2018-09-19T11:39:42.438Z,29.74
2018-09-19T11:42:12.467Z,29.80
2018-09-19T11:44:42.457Z,29.87
2018-09-19T11:47:12.467Z,29.95
2018-09-19T11:49:42.472Z,30.00
2018-09-19T11:52:12.488Z,30.03
2018-09-19T11:54:42.392Z,30.07
2018-09-19T11:57:12.455Z,30.12
2018-09-19T11:59:42.484Z,30.18
2018-09-19T12:02:15.266Z,30.24
2018-09-19T12:04:46.480Z,30.26
2018-09-19T12:07:16.535Z,30.29
2018-09-19T12:09:46.536Z,30.34
2018-09-19T12:12:17.572Z,30.38
2018-09-19T12:14:47.590Z,30.42
2018-09-19T12:17:17.527Z,30.42
2018-09-19T12:19:47.470Z,30.44
2018-09-19T12:22:17.474Z,30.46
2018-09-19T12:24:47.542Z,30.50
2018-09-19T12:27:17.591Z,30.55
2018-09-19T12:29:47.660Z,30.58
2018-09-19T12:32:17.685Z,30.59
2018-09-19T12:34:47.745Z,30.58
2018-09-19T12:37:17.787Z,30.56
2018-09-19T12:39:47.777Z,30.58
2018-09-19T12:42:17.825Z,30.60
2018-09-19T12:44:48.103Z,30.62
2018-09-19T12:47:21.163Z,30.61
2018-09-19T12:49:51.553Z,30.59
2018-09-19T12:52:21.570Z,30.58
2018-09-19T12:54:51.546Z,30.56
2018-09-19T12:57:23.308Z,30.58
2018-09-19T12:59:53.360Z,30.63
2018-09-19T13:02:23.340Z,30.66
2018-09-19T13:04:53.342Z,30.68
2018-09-19T13:07:23.350Z,30.71
2018-09-19T13:09:53.327Z,30.74
2018-09-19T13:12:23.460Z,30.76
2018-09-19T13:14:53.435Z,30.78
2018-09-19T13:17:25.658Z,30.81
2018-09-19T13:19:55.667Z,30.84
2018-09-19T13:22:25.705Z,30.86
2018-09-19T13:24:55.751Z,30.89
2018-09-19T13:27:25.847Z,30.93
2018-09-19T13:29:55.921Z,30.96
2018-09-19T13:32:28.135Z,30.96
2018-09-19T13:34:58.145Z,30.98
2018-09-19T13:37:28.147Z,31.01
2018-09-19T13:39:58.163Z,31.02
2018-09-19T13:42:28.233Z,31.03
2018-09-19T13:44:58.264Z,31.01
2018-09-19T13:47:28.384Z,30.98
2018-09-19T13:50:12.705Z,30.96
2018-09-19T13:52:42.706Z,30.95
2018-09-19T13:55:12.740Z,30.94
2018-09-19T13:57:42.790Z,30.94
2018-09-19T14:00:12.908Z,30.97
2018-09-19T14:02:42.902Z,30.99
2018-09-19T14:05:12.892Z,31.00
2018-09-19T14:07:42.915Z,31.04
2018-09-19T14:10:13.942Z,31.06
2018-09-19T14:12:44.003Z,31.07
2018-09-19T14:15:14.101Z,31.07
2018-09-19T14:17:44.133Z,31.09
2018-09-19T14:20:15.150Z,31.08
2018-09-19T14:22:45.195Z,31.09
2018-09-19T14:25:15.295Z,31.08
2018-09-19T14:27:47.206Z,31.06
2018-09-19T14:30:17.173Z,31.05
2018-09-19T14:32:48.123Z,31.05
2018-09-19T14:35:18.134Z,31.04
2018-09-19T14:37:48.348Z,31.05
2018-09-19T14:40:19.538Z,31.08
2018-09-19T14:42:50.496Z,31.09
2018-09-19T14:45:20.552Z,31.11
2018-09-19T14:47:50.583Z,31.10
2018-09-19T14:50:20.575Z,31.11
2018-09-19T14:52:50.540Z,31.11
2018-09-19T14:55:20.551Z,31.12
2018-09-19T14:57:50.626Z,31.11
2018-09-19T15:00:20.709Z,31.11
2018-09-19T15:02:50.785Z,31.08
2018-09-19T15:05:20.823Z,31.06
2018-09-19T15:07:53.180Z,31.01
2018-09-19T15:10:23.438Z,30.99
2018-09-19T15:12:53.638Z,30.94
2018-09-19T15:15:23.698Z,30.91
2018-09-19T15:17:53.716Z,30.87
2018-09-19T15:20:23.905Z,30.81
2018-09-19T15:22:54.840Z,30.78
2018-09-19T15:25:24.826Z,30.74
2018-09-19T15:27:54.811Z,30.70
2018-09-19T15:30:24.797Z,30.67
2018-09-19T15:32:55.628Z,30.65
2018-09-19T15:35:25.632Z,30.62
2018-09-19T15:37:55.719Z,30.61
2018-09-19T15:40:25.781Z,30.60
2018-09-19T15:42:55.837Z,30.56
2018-09-19T15:45:25.819Z,30.54
2018-09-19T15:47:55.943Z,30.50
2018-09-19T15:50:25.927Z,30.47
2018-09-19T15:52:56.903Z,30.43
2018-09-19T15:55:26.987Z,30.40
2018-09-19T15:57:57.010Z,30.35
2018-09-19T16:00:27.136Z,30.31
2018-09-19T16:02:57.175Z,30.28
2018-09-19T16:05:28.173Z,30.24
2018-09-19T16:07:58.141Z,30.21
2018-09-19T16:10:28.124Z,30.16
2018-09-19T16:12:58.994Z,30.11
2018-09-19T16:15:28.976Z,30.06
2018-09-19T16:17:59.330Z,30.02
2018-09-19T16:20:29.534Z,29.99
2018-09-19T16:22:59.590Z,29.95
2018-09-19T16:25:29.717Z,29.91
2018-09-19T16:27:59.778Z,29.86
2018-09-19T16:30:31.581Z,29.82
2018-09-19T16:33:02.645Z,29.75
2018-09-19T16:35:32.625Z,29.71
2018-09-19T16:38:04.694Z,29.65
2018-09-19T16:40:34.683Z,29.59
2018-09-19T16:43:05.414Z,29.53
2018-09-19T16:45:35.476Z,29.48
2018-09-19T16:48:05.489Z,29.42
2018-09-19T16:50:35.513Z,29.37
2018-09-19T16:53:05.663Z,29.30
2018-09-19T16:55:35.585Z,29.14
2018-09-19T16:58:07.421Z,29.16
2018-09-19T17:00:39.133Z,29.12
2018-09-19T17:03:12.159Z,29.04
2018-09-19T17:05:42.201Z,28.99
2018-09-19T17:08:12.391Z,28.93
2018-09-19T17:10:42.635Z,28.87
2018-09-19T17:13:14.589Z,28.81
2018-09-19T17:15:44.627Z,28.74
2018-09-19T17:18:16.702Z,28.68
2018-09-19T17:20:46.693Z,28.60
2018-09-19T17:23:16.674Z,28.54
2018-09-19T17:25:46.660Z,28.47
2018-09-19T17:28:16.674Z,28.40
2018-09-19T17:30:46.680Z,28.34
2018-09-19T17:33:16.706Z,28.26
2018-09-19T17:35:46.647Z,28.20
2018-09-19T17:38:17.673Z,28.11
2018-09-19T17:40:47.671Z,28.03
2018-09-19T17:43:18.671Z,27.95
2018-09-19T17:45:48.879Z,27.86
2018-09-19T17:48:18.690Z,27.77
2018-09-19T17:50:49.537Z,27.68
2018-09-19T17:53:20.482Z,27.59
2018-09-19T17:55:50.624Z,27.49
2018-09-19T17:58:20.681Z,27.40
2018-09-19T18:00:50.755Z,27.32
2018-09-19T18:03:20.681Z,27.23
2018-09-19T18:05:50.700Z,27.13
2018-09-19T18:08:20.782Z,27.04
2018-09-19T18:10:50.880Z,26.95
2018-09-19T18:13:20.905Z,26.86
2018-09-19T18:15:50.918Z,26.77
2018-09-19T18:18:21.012Z,26.68
2018-09-19T18:20:51.063Z,26.60
2018-09-19T18:23:21.051Z,26.50
2018-09-19T18:25:51.043Z,26.41
2018-09-19T18:28:21.086Z,26.33
2018-09-19T18:30:50.759Z,26.24
2018-09-19T18:33:20.433Z,26.17
2018-09-19T18:35:50.119Z,26.10
2018-09-19T18:38:19.899Z,26.02
2018-09-19T18:40:49.539Z,25.97
2018-09-19T18:43:19.453Z,25.83
2018-09-19T18:45:49.848Z,25.83
2018-09-19T18:48:19.959Z,25.78
2018-09-19T18:50:51.629Z,25.72
2018-09-19T18:53:21.614Z,25.67
2018-09-19T18:55:51.692Z,25.60
2018-09-19T18:58:21.926Z,25.29
2018-09-19T19:00:51.959Z,25.46
2018-09-19T19:03:22.032Z,25.41
2018-09-19T19:05:52.135Z,25.36
2018-09-19T19:08:22.136Z,25.28
2018-09-19T19:10:52.258Z,25.21
2018-09-19T19:13:22.282Z,25.16
2018-09-19T19:15:52.386Z,25.10
2018-09-19T19:18:22.362Z,25.03
2018-09-19T19:20:52.376Z,24.95
2018-09-19T19:23:22.454Z,24.89
2018-09-19T19:25:52.382Z,24.82
2018-09-19T19:28:22.451Z,24.74
2018-09-19T19:30:52.582Z,24.67
2018-09-19T19:33:22.596Z,24.57
2018-09-19T19:35:52.629Z,24.48
2018-09-19T19:38:22.718Z,24.40
2018-09-19T19:40:52.745Z,24.28
2018-09-19T19:43:22.825Z,24.16
2018-09-19T19:45:52.859Z,24.04
2018-09-19T19:48:22.891Z,23.92
2018-09-19T19:50:53.229Z,23.78
2018-09-19T19:53:23.382Z,23.66
2018-09-19T19:55:53.360Z,23.54
2018-09-19T19:58:23.590Z,23.41
2018-09-19T20:00:53.614Z,23.28
2018-09-19T20:03:23.656Z,23.14
2018-09-19T20:05:53.748Z,23.01
2018-09-19T20:08:24.664Z,22.87
2018-09-19T20:10:54.715Z,22.74
2018-09-19T20:13:24.680Z,22.60
2018-09-19T20:15:54.680Z,22.46
2018-09-19T20:18:24.763Z,22.33
2018-09-19T20:20:54.764Z,22.21
2018-09-19T20:23:24.769Z,22.08
2018-09-19T20:25:54.739Z,21.96
2018-09-19T20:28:24.664Z,21.85
2018-09-19T20:30:54.667Z,21.73
2018-09-19T20:33:24.650Z,21.60
2018-09-19T20:35:54.625Z,21.50
2018-09-19T20:38:24.567Z,21.38
2018-09-19T20:40:54.546Z,21.28
2018-09-19T20:43:24.524Z,21.17
2018-09-19T20:45:54.561Z,21.06
2018-09-19T20:48:24.563Z,20.95
2018-09-19T20:50:54.590Z,20.85
2018-09-19T20:53:25.487Z,20.75
2018-09-19T20:55:55.438Z,20.65
2018-09-19T20:58:27.665Z,20.56
2018-09-19T21:00:57.646Z,20.45
2018-09-19T21:03:27.650Z,20.36
2018-09-19T21:05:57.648Z,20.28
2018-09-19T21:08:28.579Z,20.20
2018-09-19T21:10:58.653Z,20.11
2018-09-19T21:13:28.680Z,20.03
2018-09-19T21:15:58.719Z,19.94
2018-09-19T21:18:31.081Z,19.88
2018-09-19T21:21:01.019Z,19.80
2018-09-19T21:23:30.639Z,19.72
2018-09-19T21:26:00.288Z,19.65
2018-09-19T21:28:29.928Z,19.58
2018-09-19T21:30:59.566Z,19.51
2018-09-19T21:33:29.214Z,19.45
2018-09-19T21:35:58.859Z,19.39
2018-09-19T21:38:28.470Z,19.33
2018-09-19T21:40:58.083Z,19.28
2018-09-19T21:43:27.696Z,19.21
2018-09-19T21:45:57.289Z,19.16
2018-09-19T21:48:26.984Z,19.09
2018-09-19T21:50:56.590Z,19.05
2018-09-19T21:53:26.239Z,18.98
2018-09-19T21:55:55.829Z,18.94
2018-09-19T21:58:25.424Z,18.89
2018-09-19T22:01:00.195Z,18.84
2018-09-19T22:03:29.810Z,18.79
2018-09-19T22:05:59.419Z,18.74
2018-09-19T22:08:29.103Z,18.70
2018-09-19T22:10:58.708Z,18.65
2018-09-19T22:13:28.336Z,18.62
2018-09-19T22:15:58.021Z,18.56
2018-09-19T22:18:27.618Z,18.51
2018-09-19T22:20:57.234Z,18.48
2018-09-19T22:23:26.850Z,18.44
2018-09-19T22:25:56.530Z,18.41
2018-09-19T22:28:26.331Z,18.37
2018-09-19T22:30:55.946Z,18.35
2018-09-19T22:33:25.571Z,18.31
2018-09-19T22:35:55.168Z,18.28
2018-09-19T22:38:24.753Z,18.25
2018-09-19T22:40:54.358Z,18.21
2018-09-19T22:43:24.024Z,18.18
2018-09-19T22:45:53.718Z,18.16
2018-09-19T22:48:23.701Z,18.12
2018-09-19T22:50:53.745Z,18.09
2018-09-19T22:53:23.722Z,18.07
2018-09-19T22:55:53.726Z,18.03
2018-09-19T22:58:23.721Z,18.01
2018-09-19T23:00:53.699Z,17.97
2018-09-19T23:03:23.698Z,17.94
2018-09-19T23:05:54.710Z,17.90
2018-09-19T23:08:25.657Z,17.88
2018-09-19T23:10:55.653Z,17.85
2018-09-19T23:13:26.602Z,17.81
2018-09-19T23:15:56.621Z,17.78
2018-09-19T23:18:29.194Z,17.76
2018-09-19T23:20:59.176Z,17.72
2018-09-19T23:23:29.128Z,17.69
2018-09-19T23:25:59.140Z,17.67
2018-09-19T23:28:29.171Z,17.63
2018-09-19T23:30:59.214Z,17.59
2018-09-19T23:33:29.196Z,17.57
2018-09-19T23:35:59.206Z,17.54
2018-09-19T23:38:30.158Z,17.50
2018-09-19T23:41:00.043Z,17.48
2018-09-19T23:43:30.046Z,17.44
2018-09-19T23:46:00.071Z,17.40
2018-09-19T23:48:30.032Z,17.37
2018-09-19T23:51:00.023Z,17.34
2018-09-19T23:53:29.993Z,17.29
2018-09-19T23:55:59.954Z,17.26
2018-09-19T23:58:31.157Z,17.22
